sensor_id;sensor_type;location;lat;lon;timestamp;temperature;humidity
4435;DHT22;46552;52.150;8.428;2023-05-23T00:01:23;16.30;99.90
4435;DHT22;46552;52.150;8.428;2023-05-23T00:03:50;16.20;99.90
4435;DHT22;46552;52.150;8.428;2023-05-23T00:06:20;16.10;99.90
4435;DHT22;46552;52.150;8.428;2023-05-23T00:08:47;16.10;99.90
4435;DHT22;46552;52.150;8.428;2023-05-23T00:11:15;16.10;99.90
4435;DHT22;46552;52.150;8.428;2023-05-23T00:13:43;16.00;99.90
4435;DHT22;46552;52.150;8.428;2023-05-23T00:16:13;16.00;99.90
4435;DHT22;46552;52.150;8.428;2023-05-23T00:18:41;16.00;99.90
4435;DHT22;46552;52.150;8.428;2023-05-23T00:21:10;16.00;99.90
4435;DHT22;46552;52.150;8.428;2023-05-23T00:23:38;15.90;99.90
4435;DHT22;46552;52.150;8.428;2023-05-23T00:26:07;15.90;99.90
4435;DHT22;46552;52.150;8.428;2023-05-23T00:28:34;15.90;99.90
4435;DHT22;46552;52.150;8.428;2023-05-23T00:31:02;15.90;99.90
4435;DHT22;46552;52.150;8.428;2023-05-23T00:33:30;16.00;99.90
4435;DHT22;46552;52.150;8.428;2023-05-23T00:35:58;16.00;99.90
4435;DHT22;46552;52.150;8.428;2023-05-23T00:38:26;16.00;99.90
4435;DHT22;46552;52.150;8.428;2023-05-23T00:40:54;16.10;99.90
4435;DHT22;46552;52.150;8.428;2023-05-23T00:43:21;16.00;99.90
4435;DHT22;46552;52.150;8.428;2023-05-23T00:45:49;16.00;99.90
4435;DHT22;46552;52.150;8.428;2023-05-23T00:48:16;16.00;99.90
4435;DHT22;46552;52.150;8.428;2023-05-23T00:50:45;16.00;99.90
4435;DHT22;46552;52.150;8.428;2023-05-23T00:53:13;16.00;99.90
4435;DHT22;46552;52.150;8.428;2023-05-23T00:55:41;16.00;99.90
4435;DHT22;46552;52.150;8.428;2023-05-23T00:58:09;16.00;99.90
4435;DHT22;46552;52.150;8.428;2023-05-23T01:00:37;16.00;99.90
4435;DHT22;46552;52.150;8.428;2023-05-23T01:03:05;16.00;99.90
4435;DHT22;46552;52.150;8.428;2023-05-23T01:05:33;16.00;99.90
4435;DHT22;46552;52.150;8.428;2023-05-23T01:08:02;16.00;99.90
4435;DHT22;46552;52.150;8.428;2023-05-23T01:10:30;16.00;99.90
4435;DHT22;46552;52.150;8.428;2023-05-23T01:13:05;16.00;99.90
4435;DHT22;46552;52.150;8.428;2023-05-23T01:15:41;16.00;99.90
4435;DHT22;46552;52.150;8.428;2023-05-23T01:18:12;16.00;99.90
4435;DHT22;46552;52.150;8.428;2023-05-23T01:20:44;16.10;99.90
4435;DHT22;46552;52.150;8.428;2023-05-23T01:26:31;16.00;99.90
4435;DHT22;46552;52.150;8.428;2023-05-23T01:29:06;16.10;99.90
4435;DHT22;46552;52.150;8.428;2023-05-23T01:31:36;16.10;99.90
4435;DHT22;46552;52.150;8.428;2023-05-23T01:34:07;16.10;99.90
4435;DHT22;46552;52.150;8.428;2023-05-23T01:36:39;16.10;99.90
4435;DHT22;46552;52.150;8.428;2023-05-23T01:39:06;16.20;99.90
4435;DHT22;46552;52.150;8.428;2023-05-23T01:41:33;16.10;99.90
4435;DHT22;46552;52.150;8.428;2023-05-23T01:44:03;16.20;99.90
4435;DHT22;46552;52.150;8.428;2023-05-23T01:46:31;16.10;99.90
4435;DHT22;46552;52.150;8.428;2023-05-23T01:49:00;16.10;99.90
4435;DHT22;46552;52.150;8.428;2023-05-23T01:51:29;16.00;99.90
4435;DHT22;46552;52.150;8.428;2023-05-23T01:53:56;15.90;99.90
4435;DHT22;46552;52.150;8.428;2023-05-23T01:56:24;15.90;99.90
4435;DHT22;46552;52.150;8.428;2023-05-23T01:58:52;15.80;99.90
4435;DHT22;46552;52.150;8.428;2023-05-23T02:01:20;15.90;99.90
4435;DHT22;46552;52.150;8.428;2023-05-23T02:03:48;15.80;99.90
4435;DHT22;46552;52.150;8.428;2023-05-23T02:06:15;15.80;99.90
4435;DHT22;46552;52.150;8.428;2023-05-23T02:08:42;15.80;99.90
4435;DHT22;46552;52.150;8.428;2023-05-23T02:11:10;15.70;99.90
4435;DHT22;46552;52.150;8.428;2023-05-23T02:13:37;15.70;99.90
4435;DHT22;46552;52.150;8.428;2023-05-23T02:16:05;15.70;99.90
4435;DHT22;46552;52.150;8.428;2023-05-23T02:18:34;15.70;99.90
4435;DHT22;46552;52.150;8.428;2023-05-23T02:21:02;15.70;99.90
4435;DHT22;46552;52.150;8.428;2023-05-23T02:23:30;15.70;99.90
4435;DHT22;46552;52.150;8.428;2023-05-23T02:25:58;15.60;99.90
4435;DHT22;46552;52.150;8.428;2023-05-23T02:28:25;15.60;99.90
4435;DHT22;46552;52.150;8.428;2023-05-23T02:30:52;15.60;99.90
4435;DHT22;46552;52.150;8.428;2023-05-23T02:33:20;15.60;99.90
4435;DHT22;46552;52.150;8.428;2023-05-23T02:35:50;15.60;99.90
4435;DHT22;46552;52.150;8.428;2023-05-23T02:38:19;15.60;99.90
4435;DHT22;46552;52.150;8.428;2023-05-23T02:40:46;15.70;99.90
4435;DHT22;46552;52.150;8.428;2023-05-23T02:43:15;15.70;99.90
4435;DHT22;46552;52.150;8.428;2023-05-23T02:45:42;15.70;99.90
4435;DHT22;46552;52.150;8.428;2023-05-23T02:48:09;15.70;99.90
4435;DHT22;46552;52.150;8.428;2023-05-23T02:50:36;15.70;99.90
4435;DHT22;46552;52.150;8.428;2023-05-23T02:53:05;15.70;99.90
4435;DHT22;46552;52.150;8.428;2023-05-23T02:55:33;15.70;99.90
4435;DHT22;46552;52.150;8.428;2023-05-23T02:58:01;15.60;99.90
4435;DHT22;46552;52.150;8.428;2023-05-23T03:00:30;15.60;99.90
4435;DHT22;46552;52.150;8.428;2023-05-23T03:02:58;15.60;99.90
4435;DHT22;46552;52.150;8.428;2023-05-23T03:05:26;15.60;99.90
4435;DHT22;46552;52.150;8.428;2023-05-23T03:07:53;15.60;99.90
4435;DHT22;46552;52.150;8.428;2023-05-23T03:10:22;15.60;99.90
4435;DHT22;46552;52.150;8.428;2023-05-23T03:12:49;15.50;99.90
4435;DHT22;46552;52.150;8.428;2023-05-23T03:15:17;15.50;99.90
4435;DHT22;46552;52.150;8.428;2023-05-23T03:17:44;15.50;99.90
4435;DHT22;46552;52.150;8.428;2023-05-23T03:20:11;15.50;99.90
4435;DHT22;46552;52.150;8.428;2023-05-23T03:22:39;15.50;99.90
4435;DHT22;46552;52.150;8.428;2023-05-23T03:25:10;15.50;99.90
4435;DHT22;46552;52.150;8.428;2023-05-23T03:27:38;15.50;99.90
4435;DHT22;46552;52.150;8.428;2023-05-23T03:30:07;15.50;99.90
4435;DHT22;46552;52.150;8.428;2023-05-23T03:32:35;15.30;99.90
4435;DHT22;46552;52.150;8.428;2023-05-23T03:35:02;15.40;99.90
4435;DHT22;46552;52.150;8.428;2023-05-23T03:37:29;15.40;99.90
4435;DHT22;46552;52.150;8.428;2023-05-23T03:42:24;15.40;99.90
4435;DHT22;46552;52.150;8.428;2023-05-23T03:44:53;15.50;99.90
4435;DHT22;46552;52.150;8.428;2023-05-23T03:47:20;15.40;99.90
4435;DHT22;46552;52.150;8.428;2023-05-23T03:49:50;15.50;99.90
4435;DHT22;46552;52.150;8.428;2023-05-23T03:52:17;15.40;99.90
4435;DHT22;46552;52.150;8.428;2023-05-23T03:54:44;15.40;99.90
4435;DHT22;46552;52.150;8.428;2023-05-23T03:57:12;15.50;99.90
4435;DHT22;46552;52.150;8.428;2023-05-23T03:59:40;15.50;99.90
4435;DHT22;46552;52.150;8.428;2023-05-23T04:02:08;15.40;99.90
4435;DHT22;46552;52.150;8.428;2023-05-23T04:04:35;15.50;99.90
4435;DHT22;46552;52.150;8.428;2023-05-23T04:07:04;15.50;99.90
4435;DHT22;46552;52.150;8.428;2023-05-23T04:09:33;15.50;99.90
4435;DHT22;46552;52.150;8.428;2023-05-23T04:12:00;15.50;99.90
4435;DHT22;46552;52.150;8.428;2023-05-23T04:14:26;15.50;99.90
4435;DHT22;46552;52.150;8.428;2023-05-23T04:16:54;15.50;99.90
4435;DHT22;46552;52.150;8.428;2023-05-23T04:19:27;15.50;99.90
4435;DHT22;46552;52.150;8.428;2023-05-23T04:24:23;15.50;99.90
4435;DHT22;46552;52.150;8.428;2023-05-23T04:26:50;15.60;99.90
4435;DHT22;46552;52.150;8.428;2023-05-23T04:29:20;15.60;99.90
4435;DHT22;46552;52.150;8.428;2023-05-23T04:31:49;15.60;99.90
4435;DHT22;46552;52.150;8.428;2023-05-23T04:34:17;15.50;99.90
4435;DHT22;46552;52.150;8.428;2023-05-23T04:36:48;15.50;99.90
4435;DHT22;46552;52.150;8.428;2023-05-23T04:39:15;15.50;99.90
4435;DHT22;46552;52.150;8.428;2023-05-23T04:44:10;15.50;99.90
4435;DHT22;46552;52.150;8.428;2023-05-23T04:46:39;15.50;99.90
4435;DHT22;46552;52.150;8.428;2023-05-23T04:49:06;15.50;99.90
4435;DHT22;46552;52.150;8.428;2023-05-23T04:51:34;15.50;99.90
4435;DHT22;46552;52.150;8.428;2023-05-23T04:54:04;15.60;99.90
4435;DHT22;46552;52.150;8.428;2023-05-23T04:56:31;15.60;99.90
4435;DHT22;46552;52.150;8.428;2023-05-23T04:58:58;15.60;99.90
4435;DHT22;46552;52.150;8.428;2023-05-23T05:01:26;15.60;99.90
4435;DHT22;46552;52.150;8.428;2023-05-23T05:03:54;15.60;99.90
4435;DHT22;46552;52.150;8.428;2023-05-23T05:06:22;15.60;99.90
4435;DHT22;46552;52.150;8.428;2023-05-23T05:08:49;15.60;99.90
4435;DHT22;46552;52.150;8.428;2023-05-23T05:11:17;15.60;99.90
4435;DHT22;46552;52.150;8.428;2023-05-23T05:13:44;15.60;99.90
4435;DHT22;46552;52.150;8.428;2023-05-23T05:16:11;15.60;99.90
4435;DHT22;46552;52.150;8.428;2023-05-23T05:18:38;15.50;99.90
4435;DHT22;46552;52.150;8.428;2023-05-23T05:21:06;15.50;99.90
4435;DHT22;46552;52.150;8.428;2023-05-23T05:23:34;15.50;99.90
4435;DHT22;46552;52.150;8.428;2023-05-23T05:28:31;15.50;99.90
4435;DHT22;46552;52.150;8.428;2023-05-23T05:30:58;15.50;99.90
4435;DHT22;46552;52.150;8.428;2023-05-23T05:33:29;15.50;99.90
4435;DHT22;46552;52.150;8.428;2023-05-23T05:36:00;15.50;99.90
4435;DHT22;46552;52.150;8.428;2023-05-23T05:38:28;15.50;99.90
4435;DHT22;46552;52.150;8.428;2023-05-23T05:43:22;15.40;99.90
4435;DHT22;46552;52.150;8.428;2023-05-23T05:45:51;15.40;99.90
4435;DHT22;46552;52.150;8.428;2023-05-23T05:48:18;15.40;99.90
4435;DHT22;46552;52.150;8.428;2023-05-23T05:50:45;15.30;99.90
4435;DHT22;46552;52.150;8.428;2023-05-23T05:53:12;15.20;99.90
4435;DHT22;46552;52.150;8.428;2023-05-23T05:55:39;15.20;99.90
4435;DHT22;46552;52.150;8.428;2023-05-23T05:58:07;15.20;99.90
4435;DHT22;46552;52.150;8.428;2023-05-23T06:00:34;15.20;99.90
4435;DHT22;46552;52.150;8.428;2023-05-23T06:03:08;15.20;99.90
4435;DHT22;46552;52.150;8.428;2023-05-23T06:05:37;15.30;99.90
4435;DHT22;46552;52.150;8.428;2023-05-23T06:08:05;15.30;99.90
4435;DHT22;46552;52.150;8.428;2023-05-23T06:10:33;15.30;99.90
4435;DHT22;46552;52.150;8.428;2023-05-23T06:13:01;15.20;99.90
4435;DHT22;46552;52.150;8.428;2023-05-23T06:15:28;15.20;99.90
4435;DHT22;46552;52.150;8.428;2023-05-23T06:17:55;15.20;99.90
4435;DHT22;46552;52.150;8.428;2023-05-23T06:20:24;15.20;99.90
4435;DHT22;46552;52.150;8.428;2023-05-23T06:22:51;15.10;99.90
4435;DHT22;46552;52.150;8.428;2023-05-23T06:25:18;15.10;99.90
4435;DHT22;46552;52.150;8.428;2023-05-23T06:27:46;15.20;99.90
4435;DHT22;46552;52.150;8.428;2023-05-23T06:30:14;15.10;99.90
4435;DHT22;46552;52.150;8.428;2023-05-23T06:32:41;15.10;99.90
4435;DHT22;46552;52.150;8.428;2023-05-23T06:35:09;15.10;99.90
4435;DHT22;46552;52.150;8.428;2023-05-23T06:37:37;15.10;99.90
4435;DHT22;46552;52.150;8.428;2023-05-23T06:40:10;15.10;99.90
4435;DHT22;46552;52.150;8.428;2023-05-23T06:42:38;14.90;99.90
4435;DHT22;46552;52.150;8.428;2023-05-23T06:45:06;14.90;99.90
4435;DHT22;46552;52.150;8.428;2023-05-23T06:47:33;14.90;99.90
4435;DHT22;46552;52.150;8.428;2023-05-23T06:50:01;14.90;99.90
4435;DHT22;46552;52.150;8.428;2023-05-23T06:52:28;14.80;99.90
4435;DHT22;46552;52.150;8.428;2023-05-23T06:54:58;14.80;99.90
4435;DHT22;46552;52.150;8.428;2023-05-23T06:57:25;14.80;99.90
4435;DHT22;46552;52.150;8.428;2023-05-23T07:02:19;14.80;99.90
4435;DHT22;46552;52.150;8.428;2023-05-23T07:04:47;14.80;99.90
4435;DHT22;46552;52.150;8.428;2023-05-23T07:07:14;14.70;99.90
4435;DHT22;46552;52.150;8.428;2023-05-23T07:09:41;14.70;99.90
4435;DHT22;46552;52.150;8.428;2023-05-23T07:12:11;14.70;99.90
4435;DHT22;46552;52.150;8.428;2023-05-23T07:14:38;14.70;99.90
4435;DHT22;46552;52.150;8.428;2023-05-23T07:17:05;14.60;99.90
4435;DHT22;46552;52.150;8.428;2023-05-23T07:19:32;14.60;99.90
4435;DHT22;46552;52.150;8.428;2023-05-23T07:21:59;14.60;99.90
4435;DHT22;46552;52.150;8.428;2023-05-23T07:24:26;14.50;99.90
4435;DHT22;46552;52.150;8.428;2023-05-23T07:26:53;14.40;99.90
4435;DHT22;46552;52.150;8.428;2023-05-23T07:29:22;14.40;99.90
4435;DHT22;46552;52.150;8.428;2023-05-23T07:31:49;14.40;99.90
4435;DHT22;46552;52.150;8.428;2023-05-23T07:34:18;14.30;99.90
4435;DHT22;46552;52.150;8.428;2023-05-23T07:39:14;14.40;99.90
4435;DHT22;46552;52.150;8.428;2023-05-23T07:41:46;14.40;99.90
4435;DHT22;46552;52.150;8.428;2023-05-23T07:44:15;14.40;99.90
4435;DHT22;46552;52.150;8.428;2023-05-23T07:46:44;14.40;99.90
4435;DHT22;46552;52.150;8.428;2023-05-23T07:49:11;14.30;99.90
4435;DHT22;46552;52.150;8.428;2023-05-23T07:51:40;14.30;99.90
4435;DHT22;46552;52.150;8.428;2023-05-23T07:54:07;14.20;99.90
4435;DHT22;46552;52.150;8.428;2023-05-23T07:59:03;14.20;99.90
4435;DHT22;46552;52.150;8.428;2023-05-23T08:01:30;14.20;99.90
4435;DHT22;46552;52.150;8.428;2023-05-23T08:03:58;14.20;99.90
4435;DHT22;46552;52.150;8.428;2023-05-23T08:06:27;14.20;99.90
4435;DHT22;46552;52.150;8.428;2023-05-23T08:08:54;14.20;99.90
4435;DHT22;46552;52.150;8.428;2023-05-23T08:11:21;14.20;99.90
4435;DHT22;46552;52.150;8.428;2023-05-23T08:13:48;14.20;99.90
4435;DHT22;46552;52.150;8.428;2023-05-23T08:16:16;14.20;99.90
4435;DHT22;46552;52.150;8.428;2023-05-23T08:18:43;14.20;99.90
4435;DHT22;46552;52.150;8.428;2023-05-23T08:21:12;14.20;99.90
4435;DHT22;46552;52.150;8.428;2023-05-23T08:23:39;14.20;99.90
4435;DHT22;46552;52.150;8.428;2023-05-23T08:26:06;14.20;99.90
4435;DHT22;46552;52.150;8.428;2023-05-23T08:28:34;14.20;99.90
4435;DHT22;46552;52.150;8.428;2023-05-23T08:31:01;14.20;99.90
4435;DHT22;46552;52.150;8.428;2023-05-23T08:33:28;14.20;99.90
4435;DHT22;46552;52.150;8.428;2023-05-23T08:35:56;14.20;99.90
4435;DHT22;46552;52.150;8.428;2023-05-23T08:40:54;14.10;99.90
4435;DHT22;46552;52.150;8.428;2023-05-23T08:43:22;14.10;99.90
4435;DHT22;46552;52.150;8.428;2023-05-23T08:45:50;14.20;99.90
4435;DHT22;46552;52.150;8.428;2023-05-23T08:48:19;14.10;99.90
4435;DHT22;46552;52.150;8.428;2023-05-23T08:50:47;14.20;99.90
4435;DHT22;46552;52.150;8.428;2023-05-23T08:53:15;14.20;99.90
4435;DHT22;46552;52.150;8.428;2023-05-23T08:55:47;14.20;99.90
4435;DHT22;46552;52.150;8.428;2023-05-23T08:58:16;14.20;99.90
4435;DHT22;46552;52.150;8.428;2023-05-23T09:00:46;14.20;99.90
4435;DHT22;46552;52.150;8.428;2023-05-23T09:03:14;14.10;99.90
4435;DHT22;46552;52.150;8.428;2023-05-23T09:05:42;14.10;99.90
4435;DHT22;46552;52.150;8.428;2023-05-23T09:08:10;14.10;99.90
4435;DHT22;46552;52.150;8.428;2023-05-23T09:10:37;14.00;99.90
4435;DHT22;46552;52.150;8.428;2023-05-23T09:13:06;14.00;99.90
4435;DHT22;46552;52.150;8.428;2023-05-23T09:15:34;14.00;99.90
4435;DHT22;46552;52.150;8.428;2023-05-23T09:18:02;13.90;99.90
4435;DHT22;46552;52.150;8.428;2023-05-23T09:20:29;13.90;99.90
4435;DHT22;46552;52.150;8.428;2023-05-23T09:22:56;13.80;99.90
4435;DHT22;46552;52.150;8.428;2023-05-23T09:25:24;13.80;99.90
4435;DHT22;46552;52.150;8.428;2023-05-23T09:27:51;13.80;99.90
4435;DHT22;46552;52.150;8.428;2023-05-23T09:30:22;13.80;99.90
4435;DHT22;46552;52.150;8.428;2023-05-23T09:32:57;13.80;99.90
4435;DHT22;46552;52.150;8.428;2023-05-23T09:35:27;13.70;99.90
4435;DHT22;46552;52.150;8.428;2023-05-23T09:37:56;13.70;99.90
4435;DHT22;46552;52.150;8.428;2023-05-23T09:40:29;13.70;99.90
4435;DHT22;46552;52.150;8.428;2023-05-23T09:43:01;13.60;99.90
4435;DHT22;46552;52.150;8.428;2023-05-23T09:45:31;13.60;99.90
4435;DHT22;46552;52.150;8.428;2023-05-23T09:47:58;13.70;99.90
4435;DHT22;46552;52.150;8.428;2023-05-23T09:50:30;13.70;99.90
4435;DHT22;46552;52.150;8.428;2023-05-23T09:52:58;13.60;99.90
4435;DHT22;46552;52.150;8.428;2023-05-23T09:57:53;13.50;99.90
4435;DHT22;46552;52.150;8.428;2023-05-23T10:00:23;13.60;99.90
4435;DHT22;46552;52.150;8.428;2023-05-23T10:03:01;13.80;99.90
4435;DHT22;46552;52.150;8.428;2023-05-23T10:05:39;13.70;99.90
4435;DHT22;46552;52.150;8.428;2023-05-23T10:08:09;13.80;99.90
4435;DHT22;46552;52.150;8.428;2023-05-23T10:13:59;13.80;99.90
4435;DHT22;46552;52.150;8.428;2023-05-23T10:16:32;13.80;99.90
4435;DHT22;46552;52.150;8.428;2023-05-23T10:19:06;13.80;99.90
4435;DHT22;46552;52.150;8.428;2023-05-23T10:21:39;13.70;99.90
4435;DHT22;46552;52.150;8.428;2023-05-23T10:24:11;13.70;99.90
4435;DHT22;46552;52.150;8.428;2023-05-23T10:26:39;13.60;99.90
4435;DHT22;46552;52.150;8.428;2023-05-23T10:29:06;13.60;99.90
4435;DHT22;46552;52.150;8.428;2023-05-23T10:31:34;13.70;99.90
4435;DHT22;46552;52.150;8.428;2023-05-23T10:34:07;13.70;99.90
4435;DHT22;46552;52.150;8.428;2023-05-23T10:36:42;13.80;99.90
4435;DHT22;46552;52.150;8.428;2023-05-23T10:39:15;13.90;99.90
4435;DHT22;46552;52.150;8.428;2023-05-23T10:41:50;14.00;99.90
4435;DHT22;46552;52.150;8.428;2023-05-23T10:44:22;14.00;99.90
4435;DHT22;46552;52.150;8.428;2023-05-23T10:46:51;14.10;99.90
4435;DHT22;46552;52.150;8.428;2023-05-23T10:49:22;14.10;99.90
4435;DHT22;46552;52.150;8.428;2023-05-23T10:52:02;14.30;99.90
4435;DHT22;46552;52.150;8.428;2023-05-23T10:54:34;14.40;99.90
4435;DHT22;46552;52.150;8.428;2023-05-23T10:57:02;14.50;99.90
4435;DHT22;46552;52.150;8.428;2023-05-23T10:59:29;14.70;99.90
4435;DHT22;46552;52.150;8.428;2023-05-23T11:01:59;14.80;99.90
4435;DHT22;46552;52.150;8.428;2023-05-23T11:04:29;15.10;99.90
4435;DHT22;46552;52.150;8.428;2023-05-23T11:06:56;15.10;99.90
4435;DHT22;46552;52.150;8.428;2023-05-23T11:09:23;15.40;99.90
4435;DHT22;46552;52.150;8.428;2023-05-23T11:12:00;15.40;99.90
4435;DHT22;46552;52.150;8.428;2023-05-23T11:14:52;15.50;99.90
4435;DHT22;46552;52.150;8.428;2023-05-23T11:17:30;15.50;99.90
4435;DHT22;46552;52.150;8.428;2023-05-23T11:20:02;15.60;99.90
4435;DHT22;46552;52.150;8.428;2023-05-23T11:22:31;15.60;99.90
4435;DHT22;46552;52.150;8.428;2023-05-23T11:25:00;15.50;99.90
4435;DHT22;46552;52.150;8.428;2023-05-23T11:27:28;15.40;99.90
4435;DHT22;46552;52.150;8.428;2023-05-23T11:29:58;15.30;99.90
4435;DHT22;46552;52.150;8.428;2023-05-23T11:32:27;15.30;99.90
4435;DHT22;46552;52.150;8.428;2023-05-23T11:35:00;15.20;99.90
4435;DHT22;46552;52.150;8.428;2023-05-23T11:37:27;15.20;99.90
4435;DHT22;46552;52.150;8.428;2023-05-23T11:39:55;15.20;99.90
4435;DHT22;46552;52.150;8.428;2023-05-23T11:42:22;15.00;99.90
4435;DHT22;46552;52.150;8.428;2023-05-23T11:44:50;15.10;99.90
4435;DHT22;46552;52.150;8.428;2023-05-23T11:47:18;15.00;99.90
4435;DHT22;46552;52.150;8.428;2023-05-23T11:49:46;14.90;99.90
4435;DHT22;46552;52.150;8.428;2023-05-23T11:52:15;15.00;99.90
4435;DHT22;46552;52.150;8.428;2023-05-23T11:54:42;14.90;99.90
4435;DHT22;46552;52.150;8.428;2023-05-23T11:57:10;15.00;99.90
4435;DHT22;46552;52.150;8.428;2023-05-23T11:59:38;15.00;99.90
4435;DHT22;46552;52.150;8.428;2023-05-23T12:02:07;15.10;99.90
4435;DHT22;46552;52.150;8.428;2023-05-23T12:04:34;15.10;99.90
4435;DHT22;46552;52.150;8.428;2023-05-23T12:07:04;15.30;99.90
4435;DHT22;46552;52.150;8.428;2023-05-23T12:09:42;15.80;99.90
4435;DHT22;46552;52.150;8.428;2023-05-23T12:12:09;15.80;99.90
4435;DHT22;46552;52.150;8.428;2023-05-23T12:14:38;16.00;99.90
4435;DHT22;46552;52.150;8.428;2023-05-23T12:17:10;16.20;99.90
4435;DHT22;46552;52.150;8.428;2023-05-23T12:19:37;16.50;99.90
4435;DHT22;46552;52.150;8.428;2023-05-23T12:22:05;16.80;99.90
4435;DHT22;46552;52.150;8.428;2023-05-23T12:24:33;17.10;99.90
4435;DHT22;46552;52.150;8.428;2023-05-23T12:27:03;17.40;99.90
4435;DHT22;46552;52.150;8.428;2023-05-23T12:29:31;17.70;99.90
4435;DHT22;46552;52.150;8.428;2023-05-23T12:32:00;17.90;99.90
4435;DHT22;46552;52.150;8.428;2023-05-23T12:34:28;18.10;99.90
4435;DHT22;46552;52.150;8.428;2023-05-23T12:36:56;18.30;99.90
4435;DHT22;46552;52.150;8.428;2023-05-23T12:39:25;18.30;99.90
4435;DHT22;46552;52.150;8.428;2023-05-23T12:41:53;18.10;99.90
4435;DHT22;46552;52.150;8.428;2023-05-23T12:44:22;18.00;99.90
4435;DHT22;46552;52.150;8.428;2023-05-23T12:46:49;17.90;99.90
4435;DHT22;46552;52.150;8.428;2023-05-23T12:49:16;17.80;99.90
4435;DHT22;46552;52.150;8.428;2023-05-23T12:51:44;17.70;99.90
4435;DHT22;46552;52.150;8.428;2023-05-23T12:54:12;17.70;99.90
4435;DHT22;46552;52.150;8.428;2023-05-23T12:56:39;17.70;99.90
4435;DHT22;46552;52.150;8.428;2023-05-23T12:59:06;17.60;99.90
4435;DHT22;46552;52.150;8.428;2023-05-23T13:01:35;17.60;99.90
4435;DHT22;46552;52.150;8.428;2023-05-23T13:04:02;17.60;99.90
4435;DHT22;46552;52.150;8.428;2023-05-23T13:06:29;17.60;99.90
4435;DHT22;46552;52.150;8.428;2023-05-23T13:08:58;17.60;99.90
4435;DHT22;46552;52.150;8.428;2023-05-23T13:11:25;17.60;99.10
4435;DHT22;46552;52.150;8.428;2023-05-23T13:13:52;17.50;99.90
4435;DHT22;46552;52.150;8.428;2023-05-23T13:16:19;17.50;99.40
4435;DHT22;46552;52.150;8.428;2023-05-23T13:18:47;17.50;99.60
4435;DHT22;46552;52.150;8.428;2023-05-23T13:21:14;17.40;99.30
4435;DHT22;46552;52.150;8.428;2023-05-23T13:23:42;17.50;99.40
4435;DHT22;46552;52.150;8.428;2023-05-23T13:26:10;17.40;99.30
4435;DHT22;46552;52.150;8.428;2023-05-23T13:28:37;17.50;99.40
4435;DHT22;46552;52.150;8.428;2023-05-23T13:31:04;17.60;99.30
4435;DHT22;46552;52.150;8.428;2023-05-23T13:33:32;17.80;99.10
4435;DHT22;46552;52.150;8.428;2023-05-23T13:36:00;18.00;98.80
4435;DHT22;46552;52.150;8.428;2023-05-23T13:38:27;18.40;96.60
4435;DHT22;46552;52.150;8.428;2023-05-23T13:40:56;18.40;98.00
4435;DHT22;46552;52.150;8.428;2023-05-23T13:43:23;18.50;98.00
4435;DHT22;46552;52.150;8.428;2023-05-23T13:45:51;18.60;97.90
4435;DHT22;46552;52.150;8.428;2023-05-23T13:50:48;18.30;97.20
4435;DHT22;46552;52.150;8.428;2023-05-23T13:53:17;18.10;96.80
4435;DHT22;46552;52.150;8.428;2023-05-23T13:55:45;18.00;97.00
4435;DHT22;46552;52.150;8.428;2023-05-23T13:58:12;17.90;96.60
4435;DHT22;46552;52.150;8.428;2023-05-23T14:00:40;18.00;97.20
4435;DHT22;46552;52.150;8.428;2023-05-23T14:03:07;18.00;97.10
4435;DHT22;46552;52.150;8.428;2023-05-23T14:05:34;18.10;97.10
4435;DHT22;46552;52.150;8.428;2023-05-23T14:08:01;18.30;96.90
4435;DHT22;46552;52.150;8.428;2023-05-23T14:10:31;18.40;96.90
4435;DHT22;46552;52.150;8.428;2023-05-23T14:12:59;18.40;96.50
4435;DHT22;46552;52.150;8.428;2023-05-23T14:15:26;18.40;96.60
4435;DHT22;46552;52.150;8.428;2023-05-23T14:17:53;18.30;96.80
4435;DHT22;46552;52.150;8.428;2023-05-23T14:20:21;18.20;96.80
4435;DHT22;46552;52.150;8.428;2023-05-23T14:22:49;18.10;96.50
4435;DHT22;46552;52.150;8.428;2023-05-23T14:25:16;18.90;96.60
4435;DHT22;46552;52.150;8.428;2023-05-23T14:27:45;18.10;96.50
4435;DHT22;46552;52.150;8.428;2023-05-23T14:30:12;18.00;96.50
4435;DHT22;46552;52.150;8.428;2023-05-23T14:32:39;17.90;96.50
4435;DHT22;46552;52.150;8.428;2023-05-23T14:35:09;17.70;96.40
4435;DHT22;46552;52.150;8.428;2023-05-23T14:37:36;17.70;96.40
4435;DHT22;46552;52.150;8.428;2023-05-23T14:40:05;17.80;96.50
4435;DHT22;46552;52.150;8.428;2023-05-23T14:42:34;17.80;96.20
4435;DHT22;46552;52.150;8.428;2023-05-23T14:45:04;18.10;95.40
4435;DHT22;46552;52.150;8.428;2023-05-23T14:47:32;18.10;95.40
4435;DHT22;46552;52.150;8.428;2023-05-23T14:52:27;17.90;95.30
4435;DHT22;46552;52.150;8.428;2023-05-23T14:54:54;17.90;95.80
4435;DHT22;46552;52.150;8.428;2023-05-23T14:57:21;17.80;95.90
4435;DHT22;46552;52.150;8.428;2023-05-23T14:59:49;17.60;95.90
4435;DHT22;46552;52.150;8.428;2023-05-23T15:02:18;17.50;96.10
4435;DHT22;46552;52.150;8.428;2023-05-23T15:04:45;17.30;96.20
4435;DHT22;46552;52.150;8.428;2023-05-23T15:07:15;17.30;96.20
4435;DHT22;46552;52.150;8.428;2023-05-23T15:09:43;17.40;96.20
4435;DHT22;46552;52.150;8.428;2023-05-23T15:12:12;17.40;95.90
4435;DHT22;46552;52.150;8.428;2023-05-23T15:14:40;17.40;95.20
4435;DHT22;46552;52.150;8.428;2023-05-23T15:17:07;17.40;95.60
4435;DHT22;46552;52.150;8.428;2023-05-23T15:19:37;17.30;95.10
4435;DHT22;46552;52.150;8.428;2023-05-23T15:22:07;17.30;95.30
4435;DHT22;46552;52.150;8.428;2023-05-23T15:24:34;17.30;95.40
4435;DHT22;46552;52.150;8.428;2023-05-23T15:27:01;17.20;95.40
4435;DHT22;46552;52.150;8.428;2023-05-23T15:29:28;17.20;95.50
4435;DHT22;46552;52.150;8.428;2023-05-23T15:31:57;17.10;95.30
4435;DHT22;46552;52.150;8.428;2023-05-23T15:34:24;17.10;95.80
4435;DHT22;46552;52.150;8.428;2023-05-23T15:36:53;17.00;95.80
4435;DHT22;46552;52.150;8.428;2023-05-23T15:39:20;16.90;95.80
4435;DHT22;46552;52.150;8.428;2023-05-23T15:41:48;17.00;95.90
4435;DHT22;46552;52.150;8.428;2023-05-23T15:44:15;17.00;95.90
4435;DHT22;46552;52.150;8.428;2023-05-23T15:46:45;16.80;94.80
4435;DHT22;46552;52.150;8.428;2023-05-23T15:49:13;16.80;95.50
4435;DHT22;46552;52.150;8.428;2023-05-23T15:51:40;16.70;95.50
4435;DHT22;46552;52.150;8.428;2023-05-23T15:54:09;16.60;95.30
4435;DHT22;46552;52.150;8.428;2023-05-23T15:56:36;16.60;95.70
4435;DHT22;46552;52.150;8.428;2023-05-23T15:59:04;16.50;95.70
4435;DHT22;46552;52.150;8.428;2023-05-23T16:01:31;16.50;95.50
4435;DHT22;46552;52.150;8.428;2023-05-23T16:03:59;16.50;95.50
4435;DHT22;46552;52.150;8.428;2023-05-23T16:06:26;16.60;95.30
4435;DHT22;46552;52.150;8.428;2023-05-23T16:08:53;16.70;95.20
4435;DHT22;46552;52.150;8.428;2023-05-23T16:11:23;16.80;94.90
4435;DHT22;46552;52.150;8.428;2023-05-23T16:13:50;16.80;94.50
4435;DHT22;46552;52.150;8.428;2023-05-23T16:16:17;16.90;94.60
4435;DHT22;46552;52.150;8.428;2023-05-23T16:18:44;16.90;94.40
4435;DHT22;46552;52.150;8.428;2023-05-23T16:21:11;16.90;94.30
4435;DHT22;46552;52.150;8.428;2023-05-23T16:23:39;17.00;94.30
4435;DHT22;46552;52.150;8.428;2023-05-23T16:26:07;17.00;94.20
4435;DHT22;46552;52.150;8.428;2023-05-23T16:28:36;17.00;94.20